sensor_id;sensor_type;location;lat;lon;timestamp;temperature;humidity
67752;DHT22;54551;51.068;5.826;2022-11-18T00:01:04;11.50;99.90
67752;DHT22;54551;51.068;5.826;2022-11-18T00:03:30;11.50;99.90
67752;DHT22;54551;51.068;5.826;2022-11-18T00:05:56;11.60;99.90
67752;DHT22;54551;51.068;5.826;2022-11-18T00:08:24;11.60;99.90
67752;DHT22;54551;51.068;5.826;2022-11-18T00:11:27;11.70;99.90
67752;DHT22;54551;51.068;5.826;2022-11-18T00:14:15;11.70;99.90
67752;DHT22;54551;51.068;5.826;2022-11-18T00:16:45;11.70;99.90
67752;DHT22;54551;51.068;5.826;2022-11-18T00:19:12;11.70;99.90
67752;DHT22;54551;51.068;5.826;2022-11-18T00:21:38;11.70;99.90
67752;DHT22;54551;51.068;5.826;2022-11-18T00:24:04;11.60;99.90
67752;DHT22;54551;51.068;5.826;2022-11-18T00:26:40;11.70;99.90
67752;DHT22;54551;51.068;5.826;2022-11-18T00:29:13;11.60;99.90
67752;DHT22;54551;51.068;5.826;2022-11-18T00:31:39;11.60;99.90
67752;DHT22;54551;51.068;5.826;2022-11-18T00:34:05;11.60;99.90
67752;DHT22;54551;51.068;5.826;2022-11-18T00:36:31;11.60;99.90
67752;DHT22;54551;51.068;5.826;2022-11-18T00:38:57;11.60;99.90
67752;DHT22;54551;51.068;5.826;2022-11-18T00:41:33;11.60;99.90
67752;DHT22;54551;51.068;5.826;2022-11-18T00:44:21;11.60;99.90
67752;DHT22;54551;51.068;5.826;2022-11-18T00:47:14;11.50;99.90
67752;DHT22;54551;51.068;5.826;2022-11-18T00:49:45;11.50;99.90
67752;DHT22;54551;51.068;5.826;2022-11-18T00:52:11;11.40;99.90
67752;DHT22;54551;51.068;5.826;2022-11-18T00:54:37;11.40;99.90
67752;DHT22;54551;51.068;5.826;2022-11-18T00:57:03;11.40;99.90
67752;DHT22;54551;51.068;5.826;2022-11-18T00:59:39;11.30;99.90
67752;DHT22;54551;51.068;5.826;2022-11-18T01:02:08;11.30;99.90
67752;DHT22;54551;51.068;5.826;2022-11-18T01:04:34;11.20;99.90
67752;DHT22;54551;51.068;5.826;2022-11-18T01:06:59;11.10;99.90
67752;DHT22;54551;51.068;5.826;2022-11-18T01:09:25;11.10;99.90
67752;DHT22;54551;51.068;5.826;2022-11-18T01:11:51;11.10;99.90
67752;DHT22;54551;51.068;5.826;2022-11-18T01:14:35;11.10;99.90
67752;DHT22;54551;51.068;5.826;2022-11-18T01:17:01;11.10;99.90
67752;DHT22;54551;51.068;5.826;2022-11-18T01:19:27;11.00;99.90
67752;DHT22;54551;51.068;5.826;2022-11-18T01:22:00;11.00;99.90
67752;DHT22;54551;51.068;5.826;2022-11-18T01:24:29;11.10;99.90
67752;DHT22;54551;51.068;5.826;2022-11-18T01:26:56;11.10;99.90
67752;DHT22;54551;51.068;5.826;2022-11-18T01:29:26;11.10;99.90
67752;DHT22;54551;51.068;5.826;2022-11-18T01:32:12;11.10;99.90
67752;DHT22;54551;51.068;5.826;2022-11-18T01:34:38;11.10;99.90
67752;DHT22;54551;51.068;5.826;2022-11-18T01:37:03;11.10;99.90
67752;DHT22;54551;51.068;5.826;2022-11-18T01:39:30;11.10;99.90
67752;DHT22;54551;51.068;5.826;2022-11-18T01:41:56;11.20;99.90
67752;DHT22;54551;51.068;5.826;2022-11-18T01:45:42;11.10;99.90
67752;DHT22;54551;51.068;5.826;2022-11-18T01:47:41;11.10;99.90
67752;DHT22;54551;51.068;5.826;2022-11-18T01:50:08;11.10;99.90
67752;DHT22;54551;51.068;5.826;2022-11-18T01:52:35;11.10;99.90
67752;DHT22;54551;51.068;5.826;2022-11-18T01:55:15;11.00;99.90
67752;DHT22;54551;51.068;5.826;2022-11-18T01:57:43;11.00;99.90
67752;DHT22;54551;51.068;5.826;2022-11-18T02:00:13;11.00;99.90
67752;DHT22;54551;51.068;5.826;2022-11-18T02:05:45;10.90;99.90
67752;DHT22;54551;51.068;5.826;2022-11-18T02:08:13;10.80;99.90
67752;DHT22;54551;51.068;5.826;2022-11-18T02:10:39;10.80;99.90
67752;DHT22;54551;51.068;5.826;2022-11-18T02:13:05;10.80;99.90
67752;DHT22;54551;51.068;5.826;2022-11-18T02:21:25;10.80;99.90
67752;DHT22;54551;51.068;5.826;2022-11-18T02:26:36;10.80;99.90
67752;DHT22;54551;51.068;5.826;2022-11-18T02:29:09;10.80;99.90
67752;DHT22;54551;51.068;5.826;2022-11-18T02:31:59;10.80;99.90
67752;DHT22;54551;51.068;5.826;2022-11-18T02:34:49;10.80;99.90
67752;DHT22;54551;51.068;5.826;2022-11-18T02:37:33;10.80;99.90
67752;DHT22;54551;51.068;5.826;2022-11-18T02:40:47;10.80;99.90
67752;DHT22;54551;51.068;5.826;2022-11-18T02:43:00;10.80;99.90
67752;DHT22;54551;51.068;5.826;2022-11-18T02:45:27;10.80;99.90
67752;DHT22;54551;51.068;5.826;2022-11-18T02:47:55;10.90;99.90
67752;DHT22;54551;51.068;5.826;2022-11-18T02:50:25;10.90;99.90
67752;DHT22;54551;51.068;5.826;2022-11-18T02:52:59;10.90;99.90
67752;DHT22;54551;51.068;5.826;2022-11-18T02:55:29;10.90;99.90
67752;DHT22;54551;51.068;5.826;2022-11-18T02:57:57;10.90;99.90
67752;DHT22;54551;51.068;5.826;2022-11-18T03:00:23;11.00;99.90
67752;DHT22;54551;51.068;5.826;2022-11-18T03:02:49;11.00;99.90
67752;DHT22;54551;51.068;5.826;2022-11-18T03:05:38;11.00;99.90
67752;DHT22;54551;51.068;5.826;2022-11-18T03:08:10;10.90;99.90
67752;DHT22;54551;51.068;5.826;2022-11-18T03:10:48;11.00;99.90
67752;DHT22;54551;51.068;5.826;2022-11-18T03:13:27;10.90;99.90
67752;DHT22;54551;51.068;5.826;2022-11-18T03:19:02;10.80;99.90
67752;DHT22;54551;51.068;5.826;2022-11-18T03:21:48;10.70;99.90
67752;DHT22;54551;51.068;5.826;2022-11-18T03:24:22;10.60;99.90
67752;DHT22;54551;51.068;5.826;2022-11-18T03:26:54;10.60;99.90
67752;DHT22;54551;51.068;5.826;2022-11-18T03:29:30;10.50;99.90
67752;DHT22;54551;51.068;5.826;2022-11-18T03:32:05;10.50;99.90
67752;DHT22;54551;51.068;5.826;2022-11-18T03:34:42;10.50;99.90
67752;DHT22;54551;51.068;5.826;2022-11-18T03:37:11;10.40;99.90
67752;DHT22;54551;51.068;5.826;2022-11-18T03:39:53;10.40;99.90
67752;DHT22;54551;51.068;5.826;2022-11-18T03:42:28;10.30;99.90
67752;DHT22;54551;51.068;5.826;2022-11-18T03:45:05;10.30;99.90
67752;DHT22;54551;51.068;5.826;2022-11-18T03:47:35;10.30;99.90
67752;DHT22;54551;51.068;5.826;2022-11-18T03:50:25;10.30;99.90
67752;DHT22;54551;51.068;5.826;2022-11-18T03:52:58;10.30;99.90
67752;DHT22;54551;51.068;5.826;2022-11-18T03:55:31;10.30;99.90
67752;DHT22;54551;51.068;5.826;2022-11-18T04:00:50;10.40;99.90
67752;DHT22;54551;51.068;5.826;2022-11-18T04:03:16;10.40;99.90
67752;DHT22;54551;51.068;5.826;2022-11-18T04:05:43;10.40;99.90
67752;DHT22;54551;51.068;5.826;2022-11-18T04:08:24;10.50;99.90
67752;DHT22;54551;51.068;5.826;2022-11-18T04:10:58;10.50;99.90
67752;DHT22;54551;51.068;5.826;2022-11-18T04:13:30;10.50;99.90
67752;DHT22;54551;51.068;5.826;2022-11-18T04:15:57;10.50;99.90
67752;DHT22;54551;51.068;5.826;2022-11-18T04:18:23;10.50;99.90
67752;DHT22;54551;51.068;5.826;2022-11-18T04:20:49;10.50;99.90
67752;DHT22;54551;51.068;5.826;2022-11-18T04:26:59;10.50;99.90
67752;DHT22;54551;51.068;5.826;2022-11-18T04:29:28;10.40;99.90
67752;DHT22;54551;51.068;5.826;2022-11-18T04:31:53;10.40;99.90
67752;DHT22;54551;51.068;5.826;2022-11-18T04:34:26;10.30;99.90
67752;DHT22;54551;51.068;5.826;2022-11-18T04:36:52;10.30;99.90
67752;DHT22;54551;51.068;5.826;2022-11-18T04:39:18;10.20;99.90
67752;DHT22;54551;51.068;5.826;2022-11-18T04:41:55;10.30;99.90
67752;DHT22;54551;51.068;5.826;2022-11-18T04:44:36;10.30;99.90
67752;DHT22;54551;51.068;5.826;2022-11-18T04:47:04;10.30;99.90
67752;DHT22;54551;51.068;5.826;2022-11-18T04:49:30;10.40;99.90
67752;DHT22;54551;51.068;5.826;2022-11-18T04:51:57;10.40;99.90
67752;DHT22;54551;51.068;5.826;2022-11-18T04:54:24;10.40;99.90
67752;DHT22;54551;51.068;5.826;2022-11-18T04:56:50;10.40;99.90
67752;DHT22;54551;51.068;5.826;2022-11-18T04:59:25;10.50;99.90
67752;DHT22;54551;51.068;5.826;2022-11-18T05:01:52;10.50;99.90
67752;DHT22;54551;51.068;5.826;2022-11-18T05:04:28;10.50;99.90
67752;DHT22;54551;51.068;5.826;2022-11-18T05:06:55;10.50;99.90
67752;DHT22;54551;51.068;5.826;2022-11-18T05:09:24;10.60;99.90
67752;DHT22;54551;51.068;5.826;2022-11-18T05:11:58;10.50;99.90
67752;DHT22;54551;51.068;5.826;2022-11-18T05:14:43;10.50;99.90
67752;DHT22;54551;51.068;5.826;2022-11-18T05:17:09;10.40;99.90
67752;DHT22;54551;51.068;5.826;2022-11-18T05:19:37;10.40;99.90
67752;DHT22;54551;51.068;5.826;2022-11-18T05:22:04;10.40;99.90
67752;DHT22;54551;51.068;5.826;2022-11-18T05:24:40;10.30;99.90
67752;DHT22;54551;51.068;5.826;2022-11-18T05:27:06;10.30;99.90
67752;DHT22;54551;51.068;5.826;2022-11-18T05:29:32;10.30;99.90
67752;DHT22;54551;51.068;5.826;2022-11-18T05:31:58;10.20;99.90
67752;DHT22;54551;51.068;5.826;2022-11-18T05:34:24;10.20;99.90
67752;DHT22;54551;51.068;5.826;2022-11-18T05:37:14;10.20;99.90
67752;DHT22;54551;51.068;5.826;2022-11-18T05:39:42;10.30;99.90
67752;DHT22;54551;51.068;5.826;2022-11-18T05:42:09;10.30;99.90
67752;DHT22;54551;51.068;5.826;2022-11-18T05:45:09;10.30;99.90
67752;DHT22;54551;51.068;5.826;2022-11-18T05:47:35;10.20;99.90
67752;DHT22;54551;51.068;5.826;2022-11-18T05:50:45;10.20;99.90
67752;DHT22;54551;51.068;5.826;2022-11-18T05:53:12;10.10;99.90
67752;DHT22;54551;51.068;5.826;2022-11-18T05:58:30;10.00;99.90
67752;DHT22;54551;51.068;5.826;2022-11-18T06:01:01;9.90;99.90
67752;DHT22;54551;51.068;5.826;2022-11-18T06:03:30;9.90;99.90
67752;DHT22;54551;51.068;5.826;2022-11-18T06:06:00;9.80;99.90
67752;DHT22;54551;51.068;5.826;2022-11-18T06:08:29;9.70;99.90
67752;DHT22;54551;51.068;5.826;2022-11-18T06:10:57;9.60;99.90
67752;DHT22;54551;51.068;5.826;2022-11-18T06:13:28;9.60;99.90
67752;DHT22;54551;51.068;5.826;2022-11-18T06:15:56;9.50;99.90
67752;DHT22;54551;51.068;5.826;2022-11-18T06:18:28;9.50;99.90
67752;DHT22;54551;51.068;5.826;2022-11-18T06:21:00;9.40;99.90
67752;DHT22;54551;51.068;5.826;2022-11-18T06:23:28;9.40;99.90
67752;DHT22;54551;51.068;5.826;2022-11-18T06:25:55;9.40;99.90
67752;DHT22;54551;51.068;5.826;2022-11-18T06:28:27;9.30;99.90
67752;DHT22;54551;51.068;5.826;2022-11-18T06:30:55;9.30;99.90
67752;DHT22;54551;51.068;5.826;2022-11-18T06:33:22;9.20;99.90
67752;DHT22;54551;51.068;5.826;2022-11-18T06:35:55;9.20;99.90
67752;DHT22;54551;51.068;5.826;2022-11-18T06:41:52;9.10;99.90
67752;DHT22;54551;51.068;5.826;2022-11-18T06:44:24;9.10;99.90
67752;DHT22;54551;51.068;5.826;2022-11-18T06:46:50;9.10;99.90
67752;DHT22;54551;51.068;5.826;2022-11-18T06:49:26;9.10;99.90
67752;DHT22;54551;51.068;5.826;2022-11-18T06:55:45;9.00;99.90
67752;DHT22;54551;51.068;5.826;2022-11-18T06:58:38;9.00;99.90
67752;DHT22;54551;51.068;5.826;2022-11-18T07:01:30;9.00;99.90
67752;DHT22;54551;51.068;5.826;2022-11-18T07:04:16;8.90;99.90
67752;DHT22;54551;51.068;5.826;2022-11-18T07:10:22;8.90;99.90
67752;DHT22;54551;51.068;5.826;2022-11-18T07:12:48;8.90;99.90
67752;DHT22;54551;51.068;5.826;2022-11-18T07:15:13;8.80;99.90
67752;DHT22;54551;51.068;5.826;2022-11-18T07:17:39;8.80;99.90
67752;DHT22;54551;51.068;5.826;2022-11-18T07:20:06;8.80;99.90
67752;DHT22;54551;51.068;5.826;2022-11-18T07:22:32;8.80;99.90
67752;DHT22;54551;51.068;5.826;2022-11-18T07:25:00;8.80;99.90
67752;DHT22;54551;51.068;5.826;2022-11-18T07:27:32;8.90;99.90
67752;DHT22;54551;51.068;5.826;2022-11-18T07:30:01;8.90;99.90
67752;DHT22;54551;51.068;5.826;2022-11-18T07:32:39;9.00;99.90
67752;DHT22;54551;51.068;5.826;2022-11-18T07:35:05;9.10;99.90
67752;DHT22;54551;51.068;5.826;2022-11-18T07:37:31;9.20;99.90
67752;DHT22;54551;51.068;5.826;2022-11-18T07:39:57;9.30;99.90
67752;DHT22;54551;51.068;5.826;2022-11-18T07:42:24;9.40;99.90
67752;DHT22;54551;51.068;5.826;2022-11-18T07:44:50;9.60;99.90
67752;DHT22;54551;51.068;5.826;2022-11-18T07:47:16;9.90;99.90
67752;DHT22;54551;51.068;5.826;2022-11-18T07:49:42;10.20;99.90
67752;DHT22;54551;51.068;5.826;2022-11-18T07:52:08;10.40;99.90
67752;DHT22;54551;51.068;5.826;2022-11-18T07:58:43;10.60;99.90
67752;DHT22;54551;51.068;5.826;2022-11-18T08:01:39;10.60;99.90
67752;DHT22;54551;51.068;5.826;2022-11-18T08:04:08;10.50;99.90
67752;DHT22;54551;51.068;5.826;2022-11-18T08:06:58;10.50;99.90
67752;DHT22;54551;51.068;5.826;2022-11-18T08:10:14;11.00;99.90
67752;DHT22;54551;51.068;5.826;2022-11-18T08:12:40;12.00;99.90
67752;DHT22;54551;51.068;5.826;2022-11-18T08:15:06;12.80;99.90
67752;DHT22;54551;51.068;5.826;2022-11-18T08:17:40;13.60;99.90
67752;DHT22;54551;51.068;5.826;2022-11-18T08:20:09;14.40;99.90
67752;DHT22;54551;51.068;5.826;2022-11-18T08:22:51;15.10;99.90
67752;DHT22;54551;51.068;5.826;2022-11-18T08:25:46;15.80;99.90
67752;DHT22;54551;51.068;5.826;2022-11-18T08:28:13;16.40;99.90
67752;DHT22;54551;51.068;5.826;2022-11-18T08:30:40;16.90;99.90
67752;DHT22;54551;51.068;5.826;2022-11-18T08:33:06;17.20;99.90
67752;DHT22;54551;51.068;5.826;2022-11-18T08:35:35;17.40;99.90
67752;DHT22;54551;51.068;5.826;2022-11-18T08:38:08;17.60;99.90
67752;DHT22;54551;51.068;5.826;2022-11-18T08:40:38;17.80;99.90
67752;DHT22;54551;51.068;5.826;2022-11-18T08:43:04;18.00;99.90
67752;DHT22;54551;51.068;5.826;2022-11-18T08:45:36;18.00;99.90
67752;DHT22;54551;51.068;5.826;2022-11-18T08:48:11;18.10;99.90
67752;DHT22;54551;51.068;5.826;2022-11-18T08:51:08;18.30;99.90
67752;DHT22;54551;51.068;5.826;2022-11-18T08:53:42;18.40;99.90
67752;DHT22;54551;51.068;5.826;2022-11-18T08:56:17;18.50;99.90
67752;DHT22;54551;51.068;5.826;2022-11-18T08:59:20;18.60;99.90
67752;DHT22;54551;51.068;5.826;2022-11-18T09:01:47;18.90;99.90
67752;DHT22;54551;51.068;5.826;2022-11-18T09:04:15;19.10;99.90
67752;DHT22;54551;51.068;5.826;2022-11-18T09:06:44;19.20;99.90
67752;DHT22;54551;51.068;5.826;2022-11-18T09:09:44;19.40;99.90
67752;DHT22;54551;51.068;5.826;2022-11-18T09:12:10;19.40;99.90
67752;DHT22;54551;51.068;5.826;2022-11-18T09:14:44;19.40;99.90
67752;DHT22;54551;51.068;5.826;2022-11-18T09:20:17;19.60;99.90
67752;DHT22;54551;51.068;5.826;2022-11-18T09:22:43;19.80;99.90
67752;DHT22;54551;51.068;5.826;2022-11-18T09:25:09;20.00;99.90
67752;DHT22;54551;51.068;5.826;2022-11-18T09:27:41;20.20;99.90
67752;DHT22;54551;51.068;5.826;2022-11-18T09:30:15;20.20;99.90
67752;DHT22;54551;51.068;5.826;2022-11-18T09:32:50;20.20;99.90
67752;DHT22;54551;51.068;5.826;2022-11-18T09:35:16;20.20;99.90
67752;DHT22;54551;51.068;5.826;2022-11-18T09:37:41;20.10;99.90
67752;DHT22;54551;51.068;5.826;2022-11-18T09:40:15;19.90;99.90
67752;DHT22;54551;51.068;5.826;2022-11-18T09:43:09;20.00;99.90
67752;DHT22;54551;51.068;5.826;2022-11-18T09:45:44;20.20;99.90
67752;DHT22;54551;51.068;5.826;2022-11-18T09:48:16;20.30;99.90
67752;DHT22;54551;51.068;5.826;2022-11-18T09:51:01;20.30;99.90
67752;DHT22;54551;51.068;5.826;2022-11-18T09:53:29;20.40;99.90
67752;DHT22;54551;51.068;5.826;2022-11-18T09:55:56;20.30;99.90
67752;DHT22;54551;51.068;5.826;2022-11-18T09:58:57;20.20;99.90
67752;DHT22;54551;51.068;5.826;2022-11-18T10:01:22;20.20;99.90
67752;DHT22;54551;51.068;5.826;2022-11-18T10:04:14;20.50;99.90
67752;DHT22;54551;51.068;5.826;2022-11-18T10:06:41;20.80;99.90
67752;DHT22;54551;51.068;5.826;2022-11-18T10:09:36;21.00;99.90
67752;DHT22;54551;51.068;5.826;2022-11-18T10:12:22;21.40;99.90
67752;DHT22;54551;51.068;5.826;2022-11-18T10:23:33;19.20;99.90
67752;DHT22;54551;51.068;5.826;2022-11-18T10:26:00;18.70;99.90
67752;DHT22;54551;51.068;5.826;2022-11-18T10:28:29;18.10;99.90
67752;DHT22;54551;51.068;5.826;2022-11-18T10:31:07;17.50;99.90
67752;DHT22;54551;51.068;5.826;2022-11-18T10:33:33;16.90;99.90
67752;DHT22;54551;51.068;5.826;2022-11-18T10:38:38;16.20;99.90
67752;DHT22;54551;51.068;5.826;2022-11-18T10:41:08;15.90;99.90
67752;DHT22;54551;51.068;5.826;2022-11-18T10:56:58;14.90;99.90
67752;DHT22;54551;51.068;5.826;2022-11-18T11:00:42;14.80;99.90
67752;DHT22;54551;51.068;5.826;2022-11-18T11:03:35;14.60;99.90
67752;DHT22;54551;51.068;5.826;2022-11-18T11:14:52;14.30;99.90
67752;DHT22;54551;51.068;5.826;2022-11-18T11:17:35;14.40;99.90
67752;DHT22;54551;51.068;5.826;2022-11-18T11:20:20;14.70;99.90
67752;DHT22;54551;51.068;5.826;2022-11-18T11:22:47;15.00;99.90
67752;DHT22;54551;51.068;5.826;2022-11-18T11:25:28;15.20;99.90
67752;DHT22;54551;51.068;5.826;2022-11-18T11:28:07;15.40;99.90
67752;DHT22;54551;51.068;5.826;2022-11-18T11:31:16;15.60;99.90
67752;DHT22;54551;51.068;5.826;2022-11-18T11:33:58;15.70;99.90
67752;DHT22;54551;51.068;5.826;2022-11-18T11:40:18;15.70;99.90
67752;DHT22;54551;51.068;5.826;2022-11-18T11:42:31;15.50;99.90
67752;DHT22;54551;51.068;5.826;2022-11-18T11:48:06;15.30;99.90
67752;DHT22;54551;51.068;5.826;2022-11-18T12:02:06;14.60;99.90
67752;DHT22;54551;51.068;5.826;2022-11-18T12:08:19;14.40;99.90
67752;DHT22;54551;51.068;5.826;2022-11-18T12:11:12;14.20;99.90
67752;DHT22;54551;51.068;5.826;2022-11-18T12:19:13;14.00;99.90
67752;DHT22;54551;51.068;5.826;2022-11-18T12:32:37;14.30;99.90
67752;DHT22;54551;51.068;5.826;2022-11-18T12:40:44;14.90;99.90
67752;DHT22;54551;51.068;5.826;2022-11-18T12:51:48;16.90;99.90
67752;DHT22;54551;51.068;5.826;2022-11-18T12:56:47;17.70;99.90
67752;DHT22;54551;51.068;5.826;2022-11-18T12:59:14;18.00;99.90
67752;DHT22;54551;51.068;5.826;2022-11-18T13:01:40;17.90;99.90
67752;DHT22;54551;51.068;5.826;2022-11-18T13:04:16;17.80;99.90
67752;DHT22;54551;51.068;5.826;2022-11-18T13:06:44;17.50;99.90
67752;DHT22;54551;51.068;5.826;2022-11-18T13:09:16;17.50;99.90
67752;DHT22;54551;51.068;5.826;2022-11-18T13:11:50;17.40;99.90
67752;DHT22;54551;51.068;5.826;2022-11-18T13:14:19;17.10;99.90
67752;DHT22;54551;51.068;5.826;2022-11-18T13:17:23;16.90;99.90
67752;DHT22;54551;51.068;5.826;2022-11-18T13:20:27;16.60;99.90
67752;DHT22;54551;51.068;5.826;2022-11-18T13:23:23;16.50;99.90
67752;DHT22;54551;51.068;5.826;2022-11-18T13:26:28;16.20;99.90
67752;DHT22;54551;51.068;5.826;2022-11-18T13:31:41;15.80;99.90
67752;DHT22;54551;51.068;5.826;2022-11-18T13:34:20;15.60;99.90
67752;DHT22;54551;51.068;5.826;2022-11-18T13:36:48;15.30;99.90
67752;DHT22;54551;51.068;5.826;2022-11-18T13:39:24;15.10;99.90
67752;DHT22;54551;51.068;5.826;2022-11-18T13:42:03;14.90;99.90
67752;DHT22;54551;51.068;5.826;2022-11-18T13:44:34;14.80;99.90
67752;DHT22;54551;51.068;5.826;2022-11-18T13:47:49;14.70;99.90
67752;DHT22;54551;51.068;5.826;2022-11-18T13:56:00;14.20;99.90
67752;DHT22;54551;51.068;5.826;2022-11-18T14:01:03;14.00;99.90
67752;DHT22;54551;51.068;5.826;2022-11-18T14:03:40;14.00;99.90
67752;DHT22;54551;51.068;5.826;2022-11-18T14:06:33;13.90;99.90
67752;DHT22;54551;51.068;5.826;2022-11-18T14:17:19;13.70;99.90
67752;DHT22;54551;51.068;5.826;2022-11-18T14:19:53;13.70;99.90
67752;DHT22;54551;51.068;5.826;2022-11-18T14:22:29;13.70;99.90
67752;DHT22;54551;51.068;5.826;2022-11-18T14:24:56;13.70;99.90
67752;DHT22;54551;51.068;5.826;2022-11-18T14:27:42;13.70;99.90
67752;DHT22;54551;51.068;5.826;2022-11-18T14:30:37;13.60;99.90
67752;DHT22;54551;51.068;5.826;2022-11-18T14:35:52;13.50;99.90
67752;DHT22;54551;51.068;5.826;2022-11-18T14:38:36;13.50;99.90
67752;DHT22;54551;51.068;5.826;2022-11-18T14:41:06;13.50;99.90
67752;DHT22;54551;51.068;5.826;2022-11-18T14:43:32;13.40;99.90
67752;DHT22;54551;51.068;5.826;2022-11-18T14:46:03;13.40;99.90
67752;DHT22;54551;51.068;5.826;2022-11-18T14:48:30;13.40;99.90
67752;DHT22;54551;51.068;5.826;2022-11-18T14:50:59;13.30;99.90
67752;DHT22;54551;51.068;5.826;2022-11-18T14:53:25;13.20;99.90
67752;DHT22;54551;51.068;5.826;2022-11-18T14:55:53;13.20;99.90
67752;DHT22;54551;51.068;5.826;2022-11-18T14:58:20;13.20;99.90
67752;DHT22;54551;51.068;5.826;2022-11-18T15:00:48;13.10;99.90
67752;DHT22;54551;51.068;5.826;2022-11-18T15:03:14;13.00;99.90
67752;DHT22;54551;51.068;5.826;2022-11-18T15:05:40;13.00;99.90
67752;DHT22;54551;51.068;5.826;2022-11-18T15:08:07;13.00;99.90
67752;DHT22;54551;51.068;5.826;2022-11-18T15:10:33;12.90;99.90
67752;DHT22;54551;51.068;5.826;2022-11-18T15:12:59;12.80;99.90
67752;DHT22;54551;51.068;5.826;2022-11-18T15:15:25;12.80;99.90
67752;DHT22;54551;51.068;5.826;2022-11-18T15:17:51;12.70;99.90
67752;DHT22;54551;51.068;5.826;2022-11-18T15:20:20;12.70;99.90
67752;DHT22;54551;51.068;5.826;2022-11-18T15:22:47;12.60;99.90
67752;DHT22;54551;51.068;5.826;2022-11-18T15:25:13;12.60;99.90
67752;DHT22;54551;51.068;5.826;2022-11-18T15:27:39;12.50;99.90
67752;DHT22;54551;51.068;5.826;2022-11-18T15:30:05;12.50;99.90
67752;DHT22;54551;51.068;5.826;2022-11-18T15:32:31;12.50;99.90
67752;DHT22;54551;51.068;5.826;2022-11-18T15:34:57;12.40;99.90
67752;DHT22;54551;51.068;5.826;2022-11-18T15:37:23;12.40;99.90
67752;DHT22;54551;51.068;5.826;2022-11-18T15:39:49;12.40;99.90
67752;DHT22;54551;51.068;5.826;2022-11-18T15:42:18;12.40;99.90
67752;DHT22;54551;51.068;5.826;2022-11-18T15:44:44;12.40;99.90
67752;DHT22;54551;51.068;5.826;2022-11-18T15:47:10;12.30;99.90
67752;DHT22;54551;51.068;5.826;2022-11-18T15:49:36;12.30;99.90
67752;DHT22;54551;51.068;5.826;2022-11-18T15:52:09;12.20;99.90
67752;DHT22;54551;51.068;5.826;2022-11-18T15:54:36;12.20;99.90
67752;DHT22;54551;51.068;5.826;2022-11-18T15:57:02;12.10;99.90
67752;DHT22;54551;51.068;5.826;2022-11-18T15:59:28;12.00;99.90
67752;DHT22;54551;51.068;5.826;2022-11-18T16:01:55;11.90;99.90
67752;DHT22;54551;51.068;5.826;2022-11-18T16:04:20;11.80;99.90
67752;DHT22;54551;51.068;5.826;2022-11-18T16:06:47;11.70;99.90
67752;DHT22;54551;51.068;5.826;2022-11-18T16:09:14;11.70;99.90
67752;DHT22;54551;51.068;5.826;2022-11-18T16:11:40;11.70;99.90
67752;DHT22;54551;51.068;5.826;2022-11-18T16:14:25;11.60;99.90
67752;DHT22;54551;51.068;5.826;2022-11-18T16:16:53;11.50;99.90
67752;DHT22;54551;51.068;5.826;2022-11-18T16:19:21;11.40;99.90
67752;DHT22;54551;51.068;5.826;2022-11-18T16:21:50;11.40;99.90
67752;DHT22;54551;51.068;5.826;2022-11-18T16:24:25;11.40;99.90
67752;DHT22;54551;51.068;5.826;2022-11-18T16:26:51;11.40;99.90
67752;DHT22;54551;51.068;5.826;2022-11-18T16:29:17;11.30;99.90
67752;DHT22;54551;51.068;5.826;2022-11-18T16:31:44;11.30;99.90
67752;DHT22;54551;51.068;5.826;2022-11-18T16:34:24;11.30;99.90
67752;DHT22;54551;51.068;5.826;2022-11-18T16:36:55;11.30;99.90
67752;DHT22;54551;51.068;5.826;2022-11-18T16:39:23;11.30;99.90
67752;DHT22;54551;51.068;5.826;2022-11-18T16:41:51;11.30;99.90
67752;DHT22;54551;51.068;5.826;2022-11-18T16:44:20;11.20;99.90
67752;DHT22;54551;51.068;5.826;2022-11-18T16:46:51;11.20;99.90
67752;DHT22;54551;51.068;5.826;2022-11-18T16:49:20;11.20;99.90
67752;DHT22;54551;51.068;5.826;2022-11-18T16:51:48;11.20;99.90
67752;DHT22;54551;51.068;5.826;2022-11-18T16:54:16;11.20;99.90
67752;DHT22;54551;51.068;5.826;2022-11-18T16:56:43;11.20;99.90
67752;DHT22;54551;51.068;5.826;2022-11-18T16:59:24;11.10;99.90
67752;DHT22;54551;51.068;5.826;2022-11-18T17:01:52;11.10;99.90
67752;DHT22;54551;51.068;5.826;2022-11-18T17:04:19;11.10;99.90
67752;DHT22;54551;51.068;5.826;2022-11-18T17:06:45;11.10;99.90
67752;DHT22;54551;51.068;5.826;2022-11-18T17:09:14;11.00;99.90
67752;DHT22;54551;51.068;5.826;2022-11-18T17:11:40;11.00;99.90
67752;DHT22;54551;51.068;5.826;2022-11-18T17:14:07;11.00;99.90
67752;DHT22;54551;51.068;5.826;2022-11-18T17:16:33;11.00;99.90
67752;DHT22;54551;51.068;5.826;2022-11-18T17:18:59;11.00;99.90
67752;DHT22;54551;51.068;5.826;2022-11-18T17:21:27;11.00;99.90
67752;DHT22;54551;51.068;5.826;2022-11-18T17:23:54;11.00;99.90
67752;DHT22;54551;51.068;5.826;2022-11-18T17:26:23;11.00;99.90
67752;DHT22;54551;51.068;5.826;2022-11-18T17:28:50;10.90;99.90
67752;DHT22;54551;51.068;5.826;2022-11-18T17:31:18;11.00;99.90
67752;DHT22;54551;51.068;5.826;2022-11-18T17:33:45;11.00;99.90
67752;DHT22;54551;51.068;5.826;2022-11-18T17:36:13;10.90;99.90
67752;DHT22;54551;51.068;5.826;2022-11-18T17:38:42;10.90;99.90
67752;DHT22;54551;51.068;5.826;2022-11-18T17:41:10;10.90;99.90
67752;DHT22;54551;51.068;5.826;2022-11-18T17:44:01;10.90;99.90
67752;DHT22;54551;51.068;5.826;2022-11-18T17:46:27;10.90;99.90
67752;DHT22;54551;51.068;5.826;2022-11-18T17:48:58;10.90;99.90
67752;DHT22;54551;51.068;5.826;2022-11-18T17:51:25;10.90;99.90
67752;DHT22;54551;51.068;5.826;2022-11-18T17:53:51;10.90;99.90
67752;DHT22;54551;51.068;5.826;2022-11-18T17:56:18;10.90;99.90
67752;DHT22;54551;51.068;5.826;2022-11-18T17:58:45;10.90;99.90
67752;DHT22;54551;51.068;5.826;2022-11-18T18:01:13;10.90;99.90
67752;DHT22;54551;51.068;5.826;2022-11-18T18:03:39;11.00;99.90
67752;DHT22;54551;51.068;5.826;2022-11-18T18:06:07;10.90;99.90
67752;DHT22;54551;51.068;5.826;2022-11-18T18:08:33;10.90;99.90
67752;DHT22;54551;51.068;5.826;2022-11-18T18:11:10;10.90;99.90
67752;DHT22;54551;51.068;5.826;2022-11-18T18:13:37;10.90;99.90
67752;DHT22;54551;51.068;5.826;2022-11-18T18:16:22;10.90;99.90
67752;DHT22;54551;51.068;5.826;2022-11-18T18:18:48;10.90;99.90
67752;DHT22;54551;51.068;5.826;2022-11-18T18:21:15;10.90;99.90
67752;DHT22;54551;51.068;5.826;2022-11-18T18:23:41;10.90;99.90
67752;DHT22;54551;51.068;5.826;2022-11-18T18:26:08;10.80;99.90
67752;DHT22;54551;51.068;5.826;2022-11-18T18:28:35;10.90;99.90
67752;DHT22;54551;51.068;5.826;2022-11-18T18:31:06;10.90;99.90
67752;DHT22;54551;51.068;5.826;2022-11-18T18:33:32;10.80;99.90
67752;DHT22;54551;51.068;5.826;2022-11-18T18:36:05;10.90;99.90
67752;DHT22;54551;51.068;5.826;2022-11-18T18:38:32;10.90;99.90